Time;durP1;ratioP1;P1;durP2;ratioP2;P2;SDS_P1;SDS_P2;PMS_P1;PMS_P2;Temp;Humidity;BMP_temperature;BMP_pressure;BME280_temperature;BME280_humidity;BME280_pressure;Samples;Min_cycle;Max_cycle;Signal;HPM_P1;HPM_P2
2022/06/12 00:01:45;;;;;;;10.18;3.80;;;;;;;15.82;66.84;102180.94;5011524;28;20037;-72
2022/06/12 00:04:10;;;;;;;8.38;3.85;;;;;;;15.70;67.09;102169.16;5009384;28;20030;-72
2022/06/12 00:06:36;;;;;;;11.02;3.88;;;;;;;15.71;67.38;102175.41;5030222;28;20071;-73
2022/06/12 00:09:02;;;;;;;9.80;4.30;;;;;;;15.67;67.17;102163.97;5029528;28;20033;-71
2022/06/12 00:11:30;;;;;;;11.95;4.00;;;;;;;15.63;67.37;102170.47;5031753;28;20492;-72
2022/06/12 00:14:00;;;;;;;10.73;3.85;;;;;;;15.58;67.62;102173.44;5029364;28;20087;-72
2022/06/12 00:16:31;;;;;;;10.48;3.78;;;;;;;15.49;67.45;102157.06;5031080;28;20048;-71
2022/06/12 00:18:57;;;;;;;10.27;4.03;;;;;;;15.53;67.84;102161.28;5027468;28;20508;-72
2022/06/12 00:21:23;;;;;;;11.48;3.85;;;;;;;15.34;68.38;102162.44;5030390;28;20071;-71
2022/06/12 00:23:52;;;;;;;11.07;4.30;;;;;;;15.35;68.29;102166.88;5032012;28;20116;-72
2022/06/12 00:26:29;;;;;;;13.38;4.57;;;;;;;15.31;68.63;102167.13;5031817;28;20031;-72
2022/06/12 00:29:00;;;;;;;12.05;4.78;;;;;;;15.38;68.67;102171.16;5030169;28;20056;-72
2022/06/12 00:31:27;;;;;;;11.90;4.15;;;;;;;15.33;68.65;102158.03;5028156;28;20025;-73
2022/06/12 00:33:53;;;;;;;10.07;4.00;;;;;;;15.32;68.41;102166.16;5031774;28;20499;-72
2022/06/12 00:36:18;;;;;;;14.80;5.15;;;;;;;15.30;68.20;102168.09;5009596;28;20068;-72
2022/06/12 00:38:45;;;;;;;11.30;4.95;;;;;;;15.20;68.61;102167.78;5014334;28;20031;-71
2022/06/12 00:41:10;;;;;;;12.80;4.80;;;;;;;15.25;68.50;102162.16;5012543;28;20088;-72
2022/06/12 00:43:38;;;;;;;9.35;4.10;;;;;;;15.07;68.74;102167.69;5028444;28;20017;-72
2022/06/12 00:46:07;;;;;;;13.40;5.25;;;;;;;14.95;69.02;102166.59;5029821;28;20473;-72
2022/06/12 00:48:37;;;;;;;9.50;4.88;;;;;;;15.08;68.72;102161.34;5030701;28;20592;-72
2022/06/12 00:51:11;;;;;;;12.10;4.13;;;;;;;15.10;68.49;102167.50;5028533;28;20018;-71
2022/06/12 00:53:43;;;;;;;13.90;4.57;;;;;;;15.06;68.50;102168.66;5027612;28;20025;-72
2022/06/12 00:56:23;;;;;;;11.45;4.88;;;;;;;14.92;68.74;102177.50;5030968;28;20033;-72
2022/06/12 00:58:55;;;;;;;9.57;4.90;;;;;;;14.82;68.71;102162.06;5029473;28;20034;-72
2022/06/12 01:01:29;;;;;;;17.52;5.35;;;;;;;14.85;69.01;102168.09;5027919;28;20049;-72
2022/06/12 01:06:42;;;;;;;11.55;5.03;;;;;;;14.65;69.43;102163.09;5030128;28;20114;-72
2022/06/12 01:09:16;;;;;;;11.97;4.60;;;;;;;14.58;69.79;102159.03;5028736;28;20021;-72
2022/06/12 01:11:47;;;;;;;9.70;4.47;;;;;;;14.66;69.67;102157.63;5030485;28;20017;-72
2022/06/12 01:14:17;;;;;;;8.45;4.25;;;;;;;14.66;69.64;102160.31;5029737;28;20115;-72
2022/06/12 01:16:45;;;;;;;;;;;;;;;14.90;67.65;102171.38;5029461;28;20484;-72
2022/06/12 01:19:22;;;;;;;12.73;4.85;;;;;;;14.69;68.85;102164.63;5010050;28;19924;-72
2022/06/12 01:22:25;;;;;;;9.63;4.43;;;;;;;14.66;68.76;102171.03;5029576;28;20124;-72
2022/06/12 01:24:59;;;;;;;12.45;4.95;;;;;;;14.51;69.31;102171.91;5030042;28;20044;-72
2022/06/12 01:27:53;;;;;;;12.15;4.60;;;;;;;14.57;68.89;102174.25;5026427;28;20037;-71
2022/06/12 01:30:32;;;;;;;9.20;4.20;;;;;;;14.59;68.29;102168.78;5001037;28;20447;-72
2022/06/12 01:33:23;;;;;;;10.38;3.95;;;;;;;14.45;69.20;102169.59;5031938;28;20109;-72
2022/06/12 01:36:08;;;;;;;14.60;4.70;;;;;;;14.52;68.58;102168.28;5027302;28;20110;-72
2022/06/12 01:38:39;;;;;;;12.60;4.32;;;;;;;14.46;69.03;102165.94;5029075;28;20032;-72
2022/06/12 01:41:23;;;;;;;11.50;4.35;;;;;;;14.29;69.73;102164.22;5012093;28;20021;-72
2022/06/12 01:44:28;;;;;;;9.18;4.05;;;;;;;14.30;69.27;102160.63;5027393;28;20109;-72
2022/06/12 01:47:01;;;;;;;11.13;4.45;;;;;;;14.29;69.06;102157.09;4995544;28;20041;-72
2022/06/12 01:50:05;;;;;;;8.60;4.53;;;;;;;14.27;69.34;102145.59;5010706;28;20025;-71
2022/06/12 01:52:55;;;;;;;12.88;4.90;;;;;;;14.32;68.72;102156.91;5027990;28;20112;-71
2022/06/12 01:55:36;;;;;;;11.90;4.90;;;;;;;14.22;68.98;102155.72;5029685;28;20496;-71
2022/06/12 01:58:09;;;;;;;9.68;4.45;;;;;;;14.20;69.16;102152.25;5028893;28;20102;-72
2022/06/12 02:00:36;;;;;;;9.98;4.57;;;;;;;14.03;69.71;102141.66;5010983;28;20025;-71
2022/06/12 02:03:07;;;;;;;11.80;4.40;;;;;;;13.99;69.53;102148.97;5028280;28;20417;-72
2022/06/12 02:05:51;;;;;;;12.80;4.40;;;;;;;14.08;69.03;102161.84;5027769;28;20092;-72
2022/06/12 02:08:46;;;;;;;8.60;4.60;;;;;;;13.99;69.68;102159.69;5029295;28;20029;-71
2022/06/12 02:14:10;;;;;;;9.40;4.22;;;;;;;13.79;70.35;102166.13;5029688;28;20040;-72
2022/06/12 02:16:43;;;;;;;12.00;4.07;;;;;;;13.70;70.51;102161.31;5027546;28;20013;-71
2022/06/12 02:19:15;;;;;;;13.00;4.88;;;;;;;13.68;70.66;102163.22;5026687;28;20033;-71
2022/06/12 02:22:01;;;;;;;14.45;4.65;;;;;;;13.57;71.01;102170.97;5029914;28;20073;-71
2022/06/12 02:24:32;;;;;;;9.70;4.57;;;;;;;13.42;71.50;102174.47;5032392;28;20037;-71
2022/06/12 02:27:04;;;;;;;9.80;4.50;;;;;;;13.47;71.26;102165.25;5031756;28;20504;-72
2022/06/12 02:29:58;;;;;;;8.50;4.55;;;;;;;13.53;71.22;102166.72;5014978;28;20083;-71
2022/06/12 02:32:47;;;;;;;8.57;4.70;;;;;;;13.52;70.88;102159.66;5032642;28;20068;-71
2022/06/12 02:35:29;;;;;;;10.32;4.50;;;;;;;13.41;71.46;102157.53;5032498;28;20576;-71
2022/06/12 02:38:03;;;;;;;12.43;5.07;;;;;;;13.34;72.50;102156.16;5032162;28;20025;-71
2022/06/12 02:40:36;;;;;;;16.92;5.20;;;;;;;13.39;72.34;102154.13;5032824;28;20029;-71
2022/06/12 02:43:08;;;;;;;12.00;5.03;;;;;;;13.32;72.69;102158.03;5030704;28;20030;-71
2022/06/12 02:45:44;;;;;;;10.00;4.60;;;;;;;13.22;72.74;102146.97;5033633;28;20481;-71
2022/06/12 02:48:10;;;;;;;12.90;5.22;;;;;;;13.27;72.87;102155.63;5032532;28;20116;-72
2022/06/12 02:50:44;;;;;;;13.75;4.78;;;;;;;13.17;73.15;102146.34;5013744;28;20113;-71
2022/06/12 02:53:27;;;;;;;14.68;5.40;;;;;;;13.33;72.58;102147.28;5013392;28;20463;-72
2022/06/12 02:56:06;;;;;;;10.95;4.72;;;;;;;13.29;72.65;102153.72;5015356;28;20120;-72
2022/06/12 02:58:58;;;;;;;10.43;4.90;;;;;;;13.31;72.71;102129.59;5013855;28;20471;-71
2022/06/12 03:01:35;;;;;;;8.73;4.55;;;;;;;13.27;73.00;102142.28;5015469;28;20030;-71
2022/06/12 03:04:19;;;;;;;12.43;4.72;;;;;;;13.19;73.69;102142.66;5033007;28;20029;-71
2022/06/12 03:06:51;;;;;;;17.95;5.80;;;;;;;13.37;73.60;102145.31;5013885;28;20124;-72
2022/06/12 03:09:17;;;;;;;14.98;5.40;;;;;;;13.31;73.84;102132.28;5015302;28;20503;-72
2022/06/12 03:11:44;;;;;;;10.93;5.28;;;;;;;13.19;74.40;102145.31;5012994;28;20064;-71
2022/06/12 03:14:13;;;;;;;7.57;5.40;;;;;;;13.21;74.26;102139.91;5013051;28;20496;-72
2022/06/12 03:16:41;;;;;;;12.05;5.32;;;;;;;13.23;74.80;102153.16;5032597;28;20160;-71
2022/06/12 03:19:20;;;;;;;15.95;5.57;;;;;;;13.28;74.97;102152.00;5032934;28;20033;-71
2022/06/12 03:22:00;;;;;;;14.63;6.30;;;;;;;13.25;75.34;102162.88;5032259;28;20485;-71
2022/06/12 03:24:55;;;;;;;15.57;5.93;;;;;;;13.32;74.59;102150.03;5030315;28;20041;-71
2022/06/12 03:27:31;;;;;;;9.10;5.50;;;;;;;13.31;75.36;102159.00;5021949;28;20048;-71
2022/06/12 03:30:15;;;;;;;13.15;5.63;;;;;;;13.30;75.50;102154.63;5029889;28;20037;-71
2022/06/12 03:32:48;;;;;;;12.65;5.82;;;;;;;13.21;75.91;102155.03;5012753;28;20036;-71
2022/06/12 03:35:33;;;;;;;9.43;5.53;;;;;;;13.26;75.51;102156.56;5029698;28;20075;-71
2022/06/12 03:38:11;;;;;;;15.52;5.90;;;;;;;13.16;75.75;102144.63;5030273;28;20036;-71
2022/06/12 03:40:54;;;;;;;10.85;6.15;;;;;;;13.30;75.34;102147.47;5031603;28;20543;-72
2022/06/12 03:43:38;;;;;;;17.40;6.22;;;;;;;13.27;75.53;102155.63;5031448;28;20112;-71
2022/06/12 03:46:13;;;;;;;11.32;6.35;;;;;;;13.23;75.63;102162.03;5030909;28;20459;-71
2022/06/12 03:49:00;;;;;;;15.38;6.00;;;;;;;13.26;75.53;102158.38;5030318;28;20113;-71
2022/06/12 03:51:42;;;;;;;13.02;6.75;;;;;;;13.25;75.37;102160.19;5030740;28;20627;-72
2022/06/12 03:54:22;;;;;;;14.63;6.75;;;;;;;13.28;75.21;102161.84;5031990;28;20025;-71
2022/06/12 04:00:00;;;;;;;11.27;5.63;;;;;;;13.27;75.03;102169.00;5031272;28;20040;-71
2022/06/12 04:02:28;;;;;;;14.05;6.40;;;;;;;13.19;75.24;102163.16;5011458;28;20434;-71
2022/06/12 04:04:55;;;;;;;10.32;6.18;;;;;;;13.14;74.97;102158.03;5032575;28;20503;-71
2022/06/12 04:07:24;;;;;;;15.60;6.32;;;;;;;13.28;74.96;102165.38;5031356;28;20025;-71
2022/06/12 04:09:53;;;;;;;17.92;6.05;;;;;;;13.25;74.26;102161.97;5031259;28;20040;-71
2022/06/12 04:12:28;;;;;;;14.77;5.53;;;;;;;13.27;74.68;102162.78;5026459;28;20045;-71
2022/06/12 04:14:58;;;;;;;9.63;5.57;;;;;;;13.16;74.97;102155.31;5029476;28;20452;-71
2022/06/12 04:17:24;;;;;;;10.32;5.40;;;;;;;13.26;74.08;102159.22;5011640;28;20484;-71
2022/06/12 04:20:10;;;;;;;14.75;6.40;;;;;;;13.19;74.11;102158.66;5030875;28;20068;-71
2022/06/12 04:23:00;;;;;;;14.65;6.13;;;;;;;13.25;73.94;102162.88;5028455;28;20061;-71
2022/06/12 04:25:34;;;;;;;14.07;6.43;;;;;;;13.25;73.79;102161.97;5031325;28;20029;-71
2022/06/12 04:28:01;;;;;;;10.98;5.90;;;;;;;13.31;73.46;102167.03;5029101;28;20029;-71
2022/06/12 04:30:33;;;;;;;10.35;5.57;;;;;;;13.34;73.11;102169.53;5029817;28;20029;-71
2022/06/12 04:33:37;;;;;;;13.38;6.07;;;;;;;13.44;73.17;102170.75;5029248;28;20022;-71
2022/06/12 04:36:04;;;;;;;10.50;5.45;;;;;;;13.34;73.18;102178.41;5019178;28;20044;-71
2022/06/12 04:38:35;;;;;;;11.02;5.93;;;;;;;13.41;73.35;102178.94;5011093;28;20056;-71
2022/06/12 04:41:04;;;;;;;12.05;6.20;;;;;;;13.45;73.52;102182.31;5030041;28;20469;-71
2022/06/12 04:43:30;;;;;;;15.95;5.63;;;;;;;13.49;72.75;102179.38;5028144;28;20029;-72
2022/06/12 04:45:56;;;;;;;11.23;5.40;;;;;;;13.52;72.98;102175.69;5030424;28;20098;-71
2022/06/12 04:48:29;;;;;;;15.48;5.82;;;;;;;13.50;72.69;102173.13;5030746;28;20030;-71
2022/06/12 04:50:55;;;;;;;9.50;5.05;;;;;;;13.54;71.88;102174.66;5030643;28;20086;-71
2022/06/12 04:53:21;;;;;;;14.30;5.63;;;;;;;13.56;72.64;102175.44;5029215;28;20116;-71
2022/06/12 04:55:46;;;;;;;13.18;6.07;;;;;;;13.58;72.39;102173.53;5030585;28;20112;-72
2022/06/12 04:58:14;;;;;;;14.35;6.07;;;;;;;13.60;72.03;102182.34;5009277;28;20041;-71
2022/06/12 05:00:39;;;;;;;12.68;5.78;;;;;;;13.69;71.95;102170.28;5030681;28;20029;-71
2022/06/12 05:03:06;;;;;;;11.93;5.70;;;;;;;13.73;71.96;102173.66;5012698;28;20391;-71
2022/06/12 05:05:31;;;;;;;12.13;5.57;;;;;;;13.71;72.34;102168.41;5028979;28;20029;-72
2022/06/12 05:07:57;;;;;;;12.23;5.45;;;;;;;13.77;71.55;102167.19;5025620;28;20060;-71
2022/06/12 05:10:23;;;;;;;12.00;5.60;;;;;;;13.86;71.88;102178.25;5030836;28;20033;-71
2022/06/12 05:12:49;;;;;;;13.40;6.07;;;;;;;13.96;72.31;102173.22;5027490;28;20037;-71
2022/06/12 05:15:14;;;;;;;16.05;5.95;;;;;;;13.90;71.77;102167.38;5029232;28;20417;-71
2022/06/12 05:17:42;;;;;;;18.88;5.55;;;;;;;13.94;71.67;102174.25;5030599;28;20029;-71
2022/06/12 05:20:15;;;;;;;12.40;5.82;;;;;;;14.02;71.36;102169.34;5030320;28;20075;-72
2022/06/12 05:22:41;;;;;;;15.70;6.28;;;;;;;14.10;71.66;102177.81;5029508;28;20180;-70
2022/06/12 05:25:07;;;;;;;13.45;5.90;;;;;;;14.22;71.56;102171.75;5029688;28;20017;-71
2022/06/12 05:27:35;;;;;;;16.85;6.20;;;;;;;14.35;71.11;102160.34;5029968;28;20044;-71
2022/06/12 05:30:00;;;;;;;14.35;5.93;;;;;;;14.41;70.55;102168.00;4994974;28;20072;-71
2022/06/12 05:32:26;;;;;;;14.25;6.20;;;;;;;14.31;70.63;102157.84;5012365;28;20134;-71
2022/06/12 05:34:52;;;;;;;13.25;5.68;;;;;;;14.35;71.16;102147.81;5026560;28;20159;-71
2022/06/12 05:37:18;;;;;;;16.85;6.40;;;;;;;14.54;71.49;102164.56;5029363;28;20025;-71
2022/06/12 05:39:44;;;;;;;15.95;6.65;;;;;;;14.59;71.30;102169.69;5029761;28;20036;-71
2022/06/12 05:42:10;;;;;;;12.15;5.90;;;;;;;14.71;70.35;102165.41;5029068;28;20032;-71
2022/06/12 05:44:37;;;;;;;18.25;6.05;;;;;;;14.73;70.15;102166.16;5029479;28;20033;-71
2022/06/12 05:47:03;;;;;;;14.73;5.88;;;;;;;14.84;70.45;102171.75;5029814;28;20530;-71
2022/06/12 05:49:31;;;;;;;12.95;6.07;;;;;;;15.02;70.14;102175.13;5011701;28;20112;-71
2022/06/12 05:51:57;;;;;;;16.63;6.10;;;;;;;15.11;70.04;102179.06;5011177;28;20040;-70
2022/06/12 05:54:22;;;;;;;15.50;5.90;;;;;;;15.24;69.74;102179.22;5009972;28;20035;-71
2022/06/12 05:56:48;;;;;;;16.42;6.40;;;;;;;15.33;69.68;102174.13;4995996;28;20021;-71
2022/06/12 05:59:14;;;;;;;17.00;6.97;;;;;;;15.47;69.70;102189.38;5009251;28;20039;-71
2022/06/12 06:01:42;;;;;;;14.98;5.78;;;;;;;15.48;70.39;102185.72;5028321;28;20034;-71
2022/06/12 06:04:09;;;;;;;21.48;6.15;;;;;;;15.62;70.12;102176.81;5030296;28;20440;-71
2022/06/12 06:06:42;;;;;;;19.00;6.78;;;;;;;15.71;70.35;102178.09;5029285;28;20516;-71
2022/06/12 06:09:08;;;;;;;18.90;5.88;;;;;;;15.80;70.62;102174.81;5028324;28;20496;-71
2022/06/12 06:11:36;;;;;;;19.95;6.18;;;;;;;15.94;70.12;102182.81;5027741;28;20116;-71
2022/06/12 06:14:01;;;;;;;21.67;5.95;;;;;;;16.00;70.10;102181.56;5028726;28;20061;-71
2022/06/12 06:16:27;;;;;;;17.50;6.22;;;;;;;16.06;70.14;102189.22;5009320;28;20583;-71
2022/06/12 06:18:54;;;;;;;20.73;6.55;;;;;;;16.09;70.58;102197.09;4995581;28;20033;-71
2022/06/12 06:21:20;;;;;;;20.58;6.15;;;;;;;16.19;70.65;102200.03;5028357;28;20389;-71
2022/06/12 06:23:49;;;;;;;19.15;6.32;;;;;;;16.31;70.29;102185.81;5011245;28;20072;-70
2022/06/12 06:26:19;;;;;;;20.60;6.37;;;;;;;16.42;70.15;102191.34;5007763;28;20068;-70
2022/06/12 06:28:50;;;;;;;20.88;6.30;;;;;;;16.45;70.00;102188.44;5029721;28;20286;-71
2022/06/12 06:31:15;;;;;;;21.08;6.78;;;;;;;16.56;70.28;102188.59;5029388;28;20546;-71
2022/06/12 06:33:40;;;;;;;21.42;7.40;;;;;;;16.68;70.07;102192.28;5010900;28;20030;-71
2022/06/12 06:36:06;;;;;;;20.25;6.82;;;;;;;16.84;71.46;102184.06;5027522;28;20029;-71
2022/06/12 06:38:34;;;;;;;23.60;6.72;;;;;;;16.97;70.11;102194.81;5028011;28;20120;-71
2022/06/12 06:41:00;;;;;;;25.63;7.10;;;;;;;16.96;70.23;102193.97;5027175;28;20025;-71
2022/06/12 06:43:27;;;;;;;26.50;6.40;;;;;;;17.12;70.50;102198.28;5010754;28;20503;-71
2022/06/12 06:48:37;;;;;;;19.27;6.28;;;;;;;17.27;69.61;102199.94;5028437;28;20508;-71
2022/06/12 06:51:02;;;;;;;22.30;6.82;;;;;;;17.28;69.02;102181.97;5027971;28;20349;-71
2022/06/12 06:53:28;;;;;;;23.23;7.15;;;;;;;17.34;69.90;102208.44;5029221;28;20033;-71
2022/06/12 06:55:55;;;;;;;23.70;7.25;;;;;;;17.32;69.51;102213.03;5010949;28;20022;-71
2022/06/12 06:58:25;;;;;;;23.33;6.55;;;;;;;17.40;69.39;102214.22;5026596;28;20029;-71
2022/06/12 07:00:52;;;;;;;20.17;6.85;;;;;;;17.43;69.50;102205.09;5009440;28;20014;-72
2022/06/12 07:03:18;;;;;;;23.40;7.45;;;;;;;17.53;68.50;102210.66;5026647;28;20108;-71
2022/06/12 07:05:45;;;;;;;22.58;7.35;;;;;;;17.73;68.11;102211.94;5029093;28;20029;-71
2022/06/12 07:08:12;;;;;;;21.75;6.30;;;;;;;17.86;67.97;102191.31;5032158;28;20079;-71
2022/06/12 07:10:39;;;;;;;20.27;6.55;;;;;;;17.89;66.91;102199.16;5031545;28;20018;-71
2022/06/12 07:13:04;;;;;;;25.83;6.57;;;;;;;17.76;67.42;102204.50;5010540;28;20030;-71
2022/06/12 07:15:32;;;;;;;22.23;6.53;;;;;;;17.83;67.28;102207.69;5014443;28;20029;-71
2022/06/12 07:18:01;;;;;;;20.10;6.15;;;;;;;18.02;67.35;102209.88;5031513;28;20017;-71
2022/06/12 07:20:31;;;;;;;22.08;5.95;;;;;;;18.06;66.53;102209.56;5029782;28;20029;-71
2022/06/12 07:22:56;;;;;;;21.30;6.30;;;;;;;18.10;66.55;102207.50;5031784;28;20049;-71
2022/06/12 07:25:27;;;;;;;20.23;7.10;;;;;;;18.03;65.24;102212.47;5013619;28;20055;-72
2022/06/12 07:27:52;;;;;;;26.33;6.70;;;;;;;17.95;66.18;102201.41;5031058;28;20396;-71
2022/06/12 07:30:22;;;;;;;20.75;6.47;;;;;;;17.96;65.89;102213.88;5010369;28;20026;-71
2022/06/12 07:32:53;;;;;;;22.05;6.93;;;;;;;18.01;66.16;102224.31;5010384;28;20033;-71
2022/06/12 07:35:19;;;;;;;20.35;6.57;;;;;;;18.09;66.31;102224.63;5032023;28;20021;-71
2022/06/12 07:37:46;;;;;;;19.60;6.72;;;;;;;18.32;65.19;102217.53;5013180;28;20068;-71
2022/06/12 07:40:17;;;;;;;22.00;6.80;;;;;;;18.26;65.27;102218.00;5029049;28;20104;-71
2022/06/12 07:42:43;;;;;;;21.25;6.65;;;;;;;18.38;66.52;102203.59;5010842;28;20026;-71
2022/06/12 07:45:08;;;;;;;17.73;7.20;;;;;;;18.65;64.62;102207.91;5038599;28;20404;-70
2022/06/12 07:47:35;;;;;;;20.80;7.00;;;;;;;18.71;63.63;102208.31;5014644;28;20026;-70
2022/06/12 07:50:00;;;;;;;23.00;6.97;;;;;;;18.96;63.37;102212.72;5031688;28;20154;-69
2022/06/12 07:52:29;;;;;;;21.80;6.88;;;;;;;19.08;63.02;102212.75;5032270;28;20060;-69
2022/06/12 07:54:56;;;;;;;21.10;5.35;;;;;;;19.21;61.37;102210.84;5033541;28;20033;-69
2022/06/12 07:57:22;;;;;;;16.42;5.70;;;;;;;19.33;61.37;102217.97;5031993;28;20525;-69
2022/06/12 07:59:47;;;;;;;21.42;5.57;;;;;;;19.39;59.82;102216.63;5014162;28;20040;-70
2022/06/12 08:02:13;;;;;;;16.98;5.32;;;;;;;19.47;60.05;102216.84;5031368;28;20036;-69
2022/06/12 08:04:39;;;;;;;17.45;4.90;;;;;;;19.55;57.86;102216.25;5014403;28;20034;-69
2022/06/12 08:07:04;;;;;;;12.45;4.50;;;;;;;19.66;57.86;102213.59;4997140;28;20038;-69
2022/06/12 08:09:30;;;;;;;18.25;5.00;;;;;;;19.70;59.38;102215.06;5013773;28;20488;-70
2022/06/12 08:11:55;;;;;;;17.08;5.70;;;;;;;19.82;58.60;102214.06;5031640;28;20495;-70
2022/06/12 08:14:22;;;;;;;21.63;6.47;;;;;;;19.78;58.98;102206.38;5030213;28;20125;-70
2022/06/12 08:16:48;;;;;;;17.25;6.50;;;;;;;19.98;59.87;102212.84;5029955;28;20036;-71
2022/06/12 08:22:03;;;;;;;16.58;5.15;;;;;;;20.00;60.03;102202.78;5015741;28;20053;-70
2022/06/12 08:24:28;;;;;;;18.65;5.70;;;;;;;20.01;59.47;102202.66;5029909;28;20038;-70
2022/06/12 08:26:54;;;;;;;18.83;5.65;;;;;;;19.97;59.62;102211.97;4995365;28;20025;-70
2022/06/12 08:29:19;;;;;;;17.33;5.43;;;;;;;19.79;58.35;102214.31;5013088;28;20116;-70
2022/06/12 08:31:52;;;;;;;16.98;6.30;;;;;;;19.71;59.37;102209.56;5028496;28;20057;-70
2022/06/12 08:34:40;;;;;;;17.40;5.85;;;;;;;19.92;59.56;102214.22;5029697;28;20029;-70
2022/06/12 08:37:13;;;;;;;15.07;5.38;;;;;;;19.81;58.96;102220.47;5030042;28;20396;-70
2022/06/12 08:39:38;;;;;;;14.13;5.15;;;;;;;19.81;58.02;102222.31;5031478;28;20030;-71
2022/06/12 08:42:09;;;;;;;16.70;4.70;;;;;;;19.73;57.79;102204.88;5030807;28;20041;-71
2022/06/12 08:44:53;;;;;;;17.98;5.72;;;;;;;19.87;57.60;102213.72;5010200;28;20029;-70
2022/06/12 08:47:29;;;;;;;13.82;5.20;;;;;;;19.83;58.37;102210.41;5031601;28;20473;-70
2022/06/12 08:50:24;;;;;;;18.25;5.57;;;;;;;19.77;57.12;102218.16;5031783;28;20032;-70
2022/06/12 08:53:02;;;;;;;11.80;4.78;;;;;;;19.90;58.07;102198.13;5028590;28;20381;-70
2022/06/12 08:55:50;;;;;;;15.32;5.30;;;;;;;19.97;58.26;102198.47;5035438;28;20036;-70
2022/06/12 08:58:23;;;;;;;15.95;5.95;;;;;;;19.81;58.01;102206.13;5034241;28;20516;-70
2022/06/12 09:00:48;;;;;;;15.63;5.65;;;;;;;19.96;56.93;102194.91;5029538;28;20036;-71
2022/06/12 09:03:20;;;;;;;16.77;5.57;;;;;;;20.10;57.30;102191.09;4994560;28;20030;-70
2022/06/12 09:06:27;;;;;;;14.32;5.50;;;;;;;20.52;57.21;102193.06;5029199;28;20118;-70
2022/06/12 09:09:23;;;;;;;14.77;5.03;;;;;;;20.82;56.38;102187.81;5029759;28;20501;-70
2022/06/12 09:12:04;;;;;;;19.75;5.35;;;;;;;21.17;54.86;102185.75;5031465;28;20118;-69
2022/06/12 09:14:59;;;;;;;14.93;4.60;;;;;;;21.51;53.08;102194.53;5028442;28;20025;-69
2022/06/12 09:17:34;;;;;;;12.32;4.55;;;;;;;21.50;52.83;102188.25;5012825;28;20366;-69
2022/06/12 09:20:23;;;;;;;13.52;4.90;;;;;;;21.62;52.96;102180.00;5030200;28;20447;-69
2022/06/12 09:23:06;;;;;;;17.35;5.30;;;;;;;21.75;53.90;102176.09;5030744;28;20400;-69
2022/06/12 09:25:46;;;;;;;15.32;5.25;;;;;;;21.72;51.88;102170.09;5028523;28;20029;-69
2022/06/12 09:28:12;;;;;;;10.43;3.90;;;;;;;21.62;53.12;102180.91;5011780;28;20481;-69
2022/06/12 09:30:44;;;;;;;15.60;4.75;;;;;;;21.77;50.20;102181.38;5022998;28;20289;-69
2022/06/12 09:33:20;;;;;;;12.85;4.43;;;;;;;22.02;50.50;102181.88;5030584;28;20056;-69
2022/06/12 09:36:00;;;;;;;13.40;4.70;;;;;;;22.28;50.03;102183.09;5030427;28;20022;-69
2022/06/12 09:39:00;;;;;;;14.20;4.90;;;;;;;22.25;50.19;102158.97;5027567;28;20029;-70
2022/06/12 09:41:47;;;;;;;13.00;4.72;;;;;;;22.62;48.70;102182.69;5012863;28;20116;-70
2022/06/12 09:44:24;;;;;;;11.98;4.80;;;;;;;22.57;47.75;102183.13;5012146;28;20040;-71
2022/06/12 09:47:14;;;;;;;13.48;4.72;;;;;;;22.81;48.18;102179.09;5031482;28;20096;-72
2022/06/12 09:50:01;;;;;;;14.27;4.60;;;;;;;22.93;47.65;102177.09;5028325;28;20108;-73
2022/06/12 09:52:55;;;;;;;13.77;5.15;;;;;;;22.56;47.44;102184.13;5029225;28;20017;-71
2022/06/12 09:55:39;;;;;;;15.00;5.20;;;;;;;22.41;49.00;102182.81;5012239;28;20063;-72
2022/06/12 09:58:38;;;;;;;13.95;4.90;;;;;;;22.18;48.77;102174.09;5027267;28;20459;-71
2022/06/12 10:01:24;;;;;;;14.23;4.40;;;;;;;22.21;48.81;102188.22;5029049;28;20503;-71
2022/06/12 10:04:05;;;;;;;14.68;5.22;;;;;;;22.37;50.79;102181.38;5028272;28;20025;-70
2022/06/12 10:06:46;;;;;;;15.63;4.60;;;;;;;22.39;48.56;102182.97;5029996;28;20021;-70
2022/06/12 10:09:20;;;;;;;14.70;5.15;;;;;;;22.28;49.01;102185.81;5030710;28;20645;-70
2022/06/12 10:11:50;;;;;;;12.45;4.40;;;;;;;22.11;47.79;102171.03;5027708;28;20018;-71
2022/06/12 10:14:21;;;;;;;13.85;4.50;;;;;;;22.08;46.88;102173.19;5028581;28;20140;-71
2022/06/12 10:16:59;;;;;;;11.25;4.80;;;;;;;22.06;46.54;102175.16;5029528;28;20021;-73
2022/06/12 10:19:29;;;;;;;18.60;6.03;;;;;;;22.02;46.58;102173.75;5029665;28;20064;-71
2022/06/12 10:22:00;;;;;;;13.35;4.50;;;;;;;21.98;47.92;102174.03;5028973;28;20093;-70
2022/06/12 10:24:26;;;;;;;15.77;4.75;;;;;;;22.26;47.11;102165.25;5011773;28;20350;-70
2022/06/12 10:26:58;;;;;;;14.13;4.88;;;;;;;22.06;47.79;102159.78;5028913;28;20028;-70
2022/06/12 10:29:25;;;;;;;14.63;4.93;;;;;;;22.02;48.35;102162.91;5011629;28;20124;-70
2022/06/12 10:31:58;;;;;;;15.15;4.57;;;;;;;21.99;49.91;102162.19;5029813;28;20032;-70
2022/06/12 10:34:30;;;;;;;11.38;4.50;;;;;;;21.89;48.27;102168.59;5030665;28;20493;-70
2022/06/12 10:37:10;;;;;;;13.80;4.85;;;;;;;21.98;48.04;102163.19;5029039;28;20018;-71
2022/06/12 10:39:36;;;;;;;33.03;12.95;;;;;;;21.84;50.36;102157.31;5028085;28;20028;-70
2022/06/12 10:42:06;;;;;;;13.02;4.85;;;;;;;22.09;48.33;102158.63;5032220;28;20021;-70
2022/06/12 10:44:52;;;;;;;16.95;4.25;;;;;;;22.19;48.24;102157.69;5033699;28;20029;-70
2022/06/12 10:47:43;;;;;;;18.60;5.90;;;;;;;22.07;49.33;102163.34;5032307;28;20033;-70
2022/06/12 10:50:30;;;;;;;11.85;3.90;;;;;;;21.81;49.32;102149.44;5034475;28;20388;-70
2022/06/12 10:53:15;;;;;;;13.52;4.03;;;;;;;21.73;49.46;102163.66;5015354;28;20682;-70
2022/06/12 10:55:51;;;;;;;12.73;3.60;;;;;;;21.62;48.85;102161.94;5033343;28;20033;-70
2022/06/12 10:58:47;;;;;;;15.15;3.42;;;;;;;21.74;48.30;102158.13;5032634;28;20100;-72
2022/06/12 11:01:39;;;;;;;13.52;4.72;;;;;;;21.85;48.91;102156.28;5033275;28;20039;-72
2022/06/12 11:04:32;;;;;;;15.10;3.40;;;;;;;22.34;47.03;102149.13;5003346;28;20512;-72
2022/06/12 11:07:35;;;;;;;33.45;12.68;;;;;;;22.54;49.34;102147.28;5032500;28;20034;-72
2022/06/12 11:10:22;;;;;;;14.20;4.43;;;;;;;22.76;47.35;102144.25;5032936;28;20026;-72
2022/06/12 11:13:00;;;;;;;13.73;3.65;;;;;;;22.96;43.65;102147.84;5031728;28;20026;-73
2022/06/12 11:15:25;;;;;;;15.27;4.13;;;;;;;23.13;43.77;102149.78;5032000;28;20476;-73
2022/06/12 11:18:30;;;;;;;13.80;4.03;;;;;;;23.45;44.30;102150.41;5031371;28;20023;-72
2022/06/12 11:21:07;;;;;;;10.48;3.72;;;;;;;23.48;43.88;102150.13;5033300;28;20420;-72
2022/06/12 11:23:49;;;;;;;10.63;3.65;;;;;;;23.53;44.18;102143.22;5032459;28;20389;-68
2022/06/12 11:26:23;;;;;;;9.77;3.20;;;;;;;23.28;44.21;102161.03;5031460;28;20120;-73
2022/06/12 11:28:57;;;;;;;9.45;3.42;;;;;;;23.23;44.69;102143.47;5031866;28;20025;-73
2022/06/12 11:31:47;;;;;;;11.35;3.28;;;;;;;23.18;44.47;102145.75;5032935;28;20450;-72
2022/06/12 11:34:21;;;;;;;12.25;3.33;;;;;;;22.82;43.29;102142.81;5031608;28;20059;-71
2022/06/12 11:36:56;;;;;;;9.55;3.33;;;;;;;22.80;42.80;102142.13;5015244;28;20116;-72
2022/06/12 11:39:30;;;;;;;11.05;3.58;;;;;;;22.64;44.03;102140.00;5033142;28;20032;-71
2022/06/12 11:42:37;;;;;;;9.68;3.63;;;;;;;22.71;45.30;102141.16;5032749;28;20444;-71
2022/06/12 11:45:22;;;;;;;12.52;3.80;;;;;;;22.63;45.45;102120.16;4976380;28;20109;-71
2022/06/12 11:48:17;;;;;;;7.80;2.83;;;;;;;22.61;44.38;102122.16;5014674;28;20064;-71
2022/06/12 11:51:06;;;;;;;10.13;3.55;;;;;;;23.01;44.90;102129.25;5033015;28;20477;-71
2022/06/12 11:53:55;;;;;;;9.25;3.63;;;;;;;23.36;43.10;102122.28;5013651;28;20059;-71
2022/06/12 11:56:56;;;;;;;10.23;3.20;;;;;;;23.86;42.16;102118.34;5013251;28;20116;-71
2022/06/12 11:59:29;;;;;;;9.20;3.22;;;;;;;23.99;41.32;102110.66;5025281;28;20067;-72
2022/06/12 12:02:15;;;;;;;12.68;3.22;;;;;;;24.13;39.42;102110.13;5014942;28;20484;-71
2022/06/12 12:04:55;;;;;;;10.43;2.72;;;;;;;24.16;42.22;102108.97;4979921;28;20095;-72
2022/06/12 12:07:36;;;;;;;7.72;2.88;;;;;;;24.13;40.74;102109.28;5029867;28;20120;-72